createdAt,value
2022-08-25T00:00:38.169Z,100977.89
2022-08-25T00:05:46.050Z,100975.94
2022-08-25T00:11:00.331Z,100971.67
2022-08-25T00:16:06.958Z,100973.11
2022-08-25T00:21:09.737Z,100970.89
2022-08-25T00:26:12.889Z,100962.66
2022-08-25T00:31:18.788Z,100952.45
2022-08-25T00:36:21.785Z,100947.48
2022-08-25T00:41:24.867Z,100949.13
2022-08-25T00:46:35.844Z,100946.02
2022-08-25T00:51:55.970Z,100943.98
2022-08-25T00:56:59.489Z,100942.07
2022-08-25T01:02:03.451Z,100937.55
2022-08-25T01:07:06.649Z,100930.81
2022-08-25T01:12:13.963Z,100932.95
2022-08-25T01:17:16.919Z,100937.20
2022-08-25T01:22:21.027Z,100936.84
2022-08-25T01:27:23.800Z,100941.97
2022-08-25T01:32:26.622Z,100941.03
2022-08-25T01:37:29.459Z,100941.90
2022-08-25T01:43:07.655Z,100941.59
2022-08-25T01:48:10.968Z,100942.20
2022-08-25T01:53:23.380Z,100947.35
2022-08-25T01:58:29.156Z,100944.84
2022-08-25T02:03:32.469Z,100948.79
2022-08-25T02:08:35.497Z,100948.55
2022-08-25T02:13:40.627Z,100944.83
2022-08-25T02:18:43.403Z,100936.60
2022-08-25T02:23:46.568Z,100935.22
2022-08-25T02:28:50.208Z,100935.73
2022-08-25T02:33:53.394Z,100935.41
2022-08-25T02:38:56.192Z,100935.02
2022-08-25T02:44:01.878Z,100936.20
2022-08-25T02:49:06.471Z,100942.99
2022-08-25T02:54:09.429Z,100939.70
2022-08-25T02:59:12.210Z,100942.39
2022-08-25T03:04:15.042Z,100942.09
2022-08-25T03:09:18.175Z,100937.08
2022-08-25T03:14:20.870Z,100933.84
2022-08-25T03:19:24.829Z,100930.73
2022-08-25T03:24:28.715Z,100932.30
2022-08-25T03:29:33.237Z,100930.72
2022-08-25T03:34:35.991Z,100929.77
2022-08-25T03:39:38.718Z,100932.17
2022-08-25T03:44:41.450Z,100936.77
2022-08-25T03:49:44.329Z,100937.99
2022-08-25T03:54:47.197Z,100939.02
2022-08-25T03:59:50.085Z,100931.98
2022-08-25T04:04:54.036Z,100933.80
2022-08-25T04:09:58.471Z,100930.42
2022-08-25T04:15:01.237Z,100927.21
2022-08-25T04:20:05.702Z,100924.85
2022-08-25T04:25:09.201Z,100921.79
2022-08-25T04:30:13.298Z,100924.36
2022-08-25T04:35:17.245Z,100920.77
2022-08-25T04:40:20.425Z,100921.05
2022-08-25T04:45:31.646Z,100914.23
2022-08-25T04:50:37.947Z,100915.20
2022-08-25T04:55:47.812Z,100913.65
2022-08-25T05:00:50.652Z,100912.82
2022-08-25T05:05:53.450Z,100913.09
2022-08-25T05:10:56.914Z,100913.95
2022-08-25T05:16:00.420Z,100915.71
2022-08-25T05:21:06.662Z,100915.59
2022-08-25T05:26:15.408Z,100914.20
2022-08-25T05:31:21.332Z,100914.29
2022-08-25T05:36:25.168Z,100907.00
2022-08-25T05:41:29.570Z,100906.52
2022-08-25T05:46:32.337Z,100900.39
2022-08-25T05:51:35.764Z,100904.37
2022-08-25T05:56:38.541Z,100907.39
2022-08-25T06:02:00.618Z,100908.13
2022-08-25T06:07:03.521Z,100910.58
2022-08-25T06:12:07.552Z,100908.44
2022-08-25T06:17:11.231Z,100910.73
2022-08-25T06:22:14.032Z,100912.98
2022-08-25T06:27:17.793Z,100915.86
2022-08-25T06:32:20.718Z,100918.02
2022-08-25T06:37:25.322Z,100916.52
2022-08-25T06:42:28.397Z,100919.02
2022-08-25T06:47:31.200Z,100915.88
2022-08-25T06:52:34.092Z,100921.16
2022-08-25T06:57:36.865Z,100918.20
2022-08-25T07:02:39.738Z,100922.21
2022-08-25T07:07:44.876Z,100922.69
2022-08-25T07:12:47.748Z,100923.02
2022-08-25T07:18:06.983Z,100923.89
2022-08-25T07:23:09.999Z,100930.60
2022-08-25T07:28:13.990Z,100932.13
2022-08-25T07:33:16.702Z,100935.85
2022-08-25T07:38:20.859Z,100938.61
2022-08-25T07:43:23.850Z,100937.55
2022-08-25T07:48:26.566Z,100935.95
2022-08-25T07:53:29.310Z,100938.58
2022-08-25T07:58:32.095Z,100938.87
2022-08-25T08:03:50.158Z,100940.33
2022-08-25T08:08:57.787Z,100932.87
2022-08-25T08:14:01.939Z,100931.80
2022-08-25T08:19:04.725Z,100933.98
2022-08-25T08:24:24.949Z,100939.34
2022-08-25T08:29:31.814Z,100938.73
2022-08-25T08:34:34.866Z,100934.82
2022-08-25T08:39:37.833Z,100935.09
2022-08-25T08:44:46.716Z,100937.98
2022-08-25T08:50:33.410Z,100934.08
2022-08-25T08:55:52.917Z,100932.33
2022-08-25T09:00:58.420Z,100936.36
2022-08-25T09:06:06.797Z,100930.61
2022-08-25T09:11:21.373Z,100922.92
2022-08-25T09:17:16.566Z,100919.77
2022-08-25T09:23:10.915Z,100918.52
2022-08-25T09:28:35.966Z,100918.70
2022-08-25T09:33:38.668Z,100917.50
2022-08-25T09:38:41.532Z,100906.41
2022-08-25T09:43:52.538Z,100906.77
2022-08-25T09:48:57.590Z,100900.17
2022-08-25T09:54:10.561Z,100895.73
2022-08-25T09:59:40.155Z,100889.99
2022-08-25T10:04:58.518Z,100890.37
2022-08-25T10:10:07.802Z,100883.94
2022-08-25T10:15:30.131Z,100872.85
2022-08-25T10:20:35.210Z,100870.92
2022-08-25T10:26:00.411Z,100865.70
2022-08-25T10:31:25.858Z,100869.09
2022-08-25T10:36:47.148Z,100863.23
2022-08-25T10:42:08.183Z,100861.43
2022-08-25T10:47:31.686Z,100856.00
2022-08-25T10:53:33.392Z,100850.18
2022-08-25T10:58:48.776Z,100850.03
2022-08-25T11:04:07.937Z,100838.45
2022-08-25T11:09:14.188Z,100831.31
2022-08-25T11:14:35.097Z,100828.57
2022-08-25T11:19:46.180Z,100824.04
2022-08-25T11:25:00.330Z,100818.33
2022-08-25T11:30:10.129Z,100817.00
2022-08-25T11:35:14.418Z,100815.44
2022-08-25T11:40:38.622Z,100810.75
2022-08-25T11:46:02.498Z,100808.02
2022-08-25T11:51:12.414Z,100801.03
2022-08-25T11:56:34.125Z,100801.92
2022-08-25T12:01:42.805Z,100800.08
2022-08-25T12:07:11.318Z,100800.42
2022-08-25T12:12:45.444Z,100799.56
2022-08-25T12:18:09.073Z,100802.69
2022-08-25T12:23:12.956Z,100799.68
2022-08-25T12:28:52.033Z,100800.63
2022-08-25T12:34:09.225Z,100798.96
2022-08-25T12:39:19.416Z,100791.14
2022-08-25T12:44:47.410Z,100788.95
2022-08-25T12:49:50.980Z,100782.09
2022-08-25T12:54:58.593Z,100779.65
2022-08-25T13:00:16.161Z,100774.17
2022-08-25T13:05:35.402Z,100766.70
2022-08-25T13:10:58.734Z,100764.53
2022-08-25T13:16:08.900Z,100761.34
2022-08-25T13:21:30.621Z,100757.79
2022-08-25T13:26:38.328Z,100755.46
2022-08-25T13:32:02.013Z,100761.20
2022-08-25T13:37:29.716Z,100755.41
2022-08-25T13:42:32.997Z,100754.31
2022-08-25T13:47:45.182Z,100750.62
2022-08-25T13:52:53.758Z,100746.11
2022-08-25T13:58:00.007Z,100741.85
2022-08-25T14:03:12.612Z,100739.33
2022-08-25T14:08:32.347Z,100736.04
2022-08-25T14:13:35.495Z,100735.12
2022-08-25T14:19:14.706Z,100731.20
2022-08-25T14:24:23.260Z,100725.87
2022-08-25T14:29:27.627Z,100722.40
2022-08-25T14:34:38.543Z,100720.62
2022-08-25T14:39:44.055Z,100719.58
2022-08-25T14:44:47.125Z,100714.46
2022-08-25T14:49:50.006Z,100716.08
2022-08-25T14:54:53.544Z,100709.07
2022-08-25T14:59:58.157Z,100703.70
2022-08-25T15:05:05.859Z,100700.63
2022-08-25T15:10:09.431Z,100702.50
2022-08-25T15:15:17.349Z,100701.41
2022-08-25T15:20:20.943Z,100700.49
2022-08-25T15:25:24.518Z,100709.02
2022-08-25T15:30:31.155Z,100705.23
2022-08-25T15:35:34.654Z,100703.74
2022-08-25T15:40:39.047Z,100699.29
2022-08-25T15:45:41.944Z,100693.66
2022-08-25T15:50:44.742Z,100692.31
2022-08-25T15:55:47.471Z,100689.08
2022-08-25T16:00:56.155Z,100691.58
2022-08-25T16:05:59.537Z,100691.21
2022-08-25T16:11:02.864Z,100689.98
2022-08-25T16:16:06.145Z,100686.28
2022-08-25T16:21:15.775Z,100690.57
2022-08-25T16:26:18.700Z,100688.23
2022-08-25T16:31:22.148Z,100686.45
2022-08-25T16:36:25.398Z,100684.37
2022-08-25T16:41:34.363Z,100686.42
2022-08-25T16:46:40.753Z,100694.16
2022-08-25T16:51:43.940Z,100694.27
2022-08-25T16:56:46.716Z,100697.69
2022-08-25T17:01:54.198Z,100694.95
2022-08-25T17:06:57.411Z,100698.53
2022-08-25T17:12:00.978Z,100702.35
2022-08-25T17:17:06.989Z,100700.17
2022-08-25T17:22:14.261Z,100702.02
2022-08-25T17:27:18.542Z,100702.61
2022-08-25T17:32:21.376Z,100705.46
2022-08-25T17:37:31.835Z,100706.71
2022-08-25T17:42:34.627Z,100711.70
2022-08-25T17:47:37.755Z,100715.23
2022-08-25T17:52:40.622Z,100717.36
2022-08-25T17:57:43.376Z,100724.11
2022-08-25T18:02:46.999Z,100728.20
2022-08-25T18:07:49.813Z,100730.55
2022-08-25T18:12:52.675Z,100735.24
2022-08-25T18:17:57.021Z,100741.67
2022-08-25T18:23:00.317Z,100738.82
2022-08-25T18:28:03.717Z,100736.11
2022-08-25T18:33:06.650Z,100736.80
2022-08-25T18:38:28.131Z,100740.56
2022-08-25T18:43:33.854Z,100742.13
2022-08-25T18:48:37.153Z,100742.91
2022-08-25T18:53:49.853Z,100743.61
2022-08-25T18:58:53.435Z,100743.66
2022-08-25T19:03:57.055Z,100746.60
2022-08-25T19:08:59.740Z,100747.67
2022-08-25T19:14:02.569Z,100748.73
2022-08-25T19:19:06.750Z,100747.02
2022-08-25T19:24:10.398Z,100744.23
2022-08-25T19:29:17.300Z,100744.48
2022-08-25T19:34:28.115Z,100741.83
2022-08-25T19:39:31.301Z,100740.14
2022-08-25T19:44:36.059Z,100743.13
2022-08-25T19:49:40.111Z,100740.39
2022-08-25T19:54:48.307Z,100732.75
2022-08-25T19:59:50.991Z,100730.19
2022-08-25T20:04:56.598Z,100734.04
2022-08-25T20:10:00.311Z,100737.80
2022-08-25T20:15:03.696Z,100741.14
2022-08-25T20:20:09.517Z,100743.13
2022-08-25T20:25:19.290Z,100745.90
2022-08-25T20:30:28.703Z,100747.41
2022-08-25T20:35:31.517Z,100745.13
2022-08-25T20:40:34.585Z,100746.05
2022-08-25T20:45:39.976Z,100741.68
2022-08-25T20:50:42.726Z,100750.18
2022-08-25T20:55:45.505Z,100748.98
2022-08-25T21:00:48.331Z,100747.89
2022-08-25T21:05:54.073Z,100742.54
2022-08-25T21:10:57.096Z,100742.70
2022-08-25T21:16:02.758Z,100743.36
2022-08-25T21:21:16.625Z,100750.90
2022-08-25T21:26:25.358Z,100751.89
2022-08-25T21:31:29.301Z,100748.05
2022-08-25T21:36:32.519Z,100741.07
2022-08-25T21:41:35.603Z,100737.95
2022-08-25T21:46:40.041Z,100744.23
2022-08-25T21:51:44.605Z,100749.33
2022-08-25T21:56:55.775Z,100747.06
2022-08-25T22:02:02.981Z,100741.13
2022-08-25T22:07:07.713Z,100738.70
2022-08-25T22:12:10.592Z,100744.32
2022-08-25T22:17:16.604Z,100746.32
2022-08-25T22:22:21.055Z,100742.50
2022-08-25T22:27:23.984Z,100735.08
2022-08-25T22:32:26.801Z,100730.69
2022-08-25T22:37:30.403Z,100722.94
2022-08-25T22:42:33.728Z,100717.59
2022-08-25T22:47:37.025Z,100712.13
2022-08-25T22:52:42.271Z,100712.13
2022-08-25T22:57:45.421Z,100703.95
2022-08-25T23:02:53.154Z,100701.77
2022-08-25T23:07:56.035Z,100701.66
2022-08-25T23:12:58.825Z,100703.35
2022-08-25T23:18:01.539Z,100697.66
2022-08-25T23:23:04.390Z,100704.02
2022-08-25T23:28:07.455Z,100698.57
2022-08-25T23:33:15.562Z,100697.52
2022-08-25T23:38:23.208Z,100700.98
2022-08-25T23:43:25.940Z,100697.30
2022-08-25T23:48:28.711Z,100698.58
2022-08-25T23:53:31.693Z,100701.09
2022-08-25T23:58:35.942Z,100696.48
